Time;durP1;ratioP1;P1;durP2;ratioP2;P2;SDS_P1;SDS_P2;PMS_P1;PMS_P2;Temp;Humidity;BMP_temperature;BMP_pressure;BME280_temperature;BME280_humidity;BME280_pressure;Samples;Min_cycle;Max_cycle;Signal;HPM_P1;HPM_P2
2022/11/08 00:01:35;;;;;;;0.20;0.20;;;18.80;71.10;;;;;;5004294;28;20145;-39
2022/11/08 00:04:11;;;;;;;0.38;0.38;;;18.70;71.10;;;;;;4998576;28;20045;-39
2022/11/08 00:14:50;;;;;;;0.35;0.30;;;18.70;71.30;;;;;;5006367;28;19964;-38
2022/11/08 00:17:16;;;;;;;0.45;0.35;;;18.70;71.40;;;;;;5014099;28;20069;-40
2022/11/08 00:19:42;;;;;;;0.63;0.50;;;18.70;71.30;;;;;;5012923;28;20064;-40
2022/11/08 00:22:08;;;;;;;0.75;0.45;;;18.70;71.30;;;;;;4995156;28;20038;-39
2022/11/08 00:24:34;;;;;;;0.50;0.50;;;18.70;71.40;;;;;;4994967;28;20046;-40
2022/11/08 00:27:01;;;;;;;0.40;0.40;;;18.70;71.40;;;;;;4994535;28;20042;-40
2022/11/08 00:29:27;;;;;;;0.30;0.30;;;18.70;71.50;;;;;;4997157;28;20046;-39
2022/11/08 00:31:52;;;;;;;0.43;0.30;;;18.70;71.50;;;;;;4991152;28;20106;-41
2022/11/08 00:34:18;;;;;;;1.45;0.50;;;18.60;71.50;;;;;;4992472;28;20461;-44
2022/11/08 00:36:44;;;;;;;0.77;0.50;;;18.70;71.50;;;;;;4994534;28;20042;-39
2022/11/08 00:39:10;;;;;;;0.30;0.30;;;18.70;71.50;;;;;;5008424;28;20538;-41
2022/11/08 00:41:35;;;;;;;1.70;0.47;;;18.70;71.50;;;;;;5006679;28;20054;-20
2022/11/08 00:44:01;;;;;;;0.40;0.40;;;18.70;71.60;;;;;;5016175;28;20409;-22
2022/11/08 00:46:26;;;;;;;0.45;0.43;;;18.60;71.50;;;;;;5011904;28;20046;-21
2022/11/08 00:48:52;;;;;;;0.55;0.40;;;18.70;71.60;;;;;;5011876;28;20042;-21
2022/11/08 00:51:17;;;;;;;0.30;0.30;;;18.60;71.50;;;;;;5012295;28;20046;-21
2022/11/08 00:53:43;;;;;;;0.95;0.40;;;18.60;71.50;;;;;;5018337;28;20066;-21
2022/11/08 00:56:10;;;;;;;0.40;0.40;;;18.60;71.60;;;;;;5014901;28;20077;-21
2022/11/08 00:58:36;;;;;;;0.47;0.40;;;18.60;71.70;;;;;;5012835;28;20818;-21
2022/11/08 01:01:08;;;;;;;0.30;0.30;;;18.60;71.70;;;;;;5014514;28;20092;-26
2022/11/08 01:03:33;;;;;;;2.58;0.47;;;18.60;71.80;;;;;;5004256;28;20069;-22
2022/11/08 01:06:02;;;;;;;0.50;0.40;;;18.60;71.80;;;;;;5015647;28;20116;-23
2022/11/08 01:08:28;;;;;;;0.40;0.40;;;18.60;71.80;;;;;;5011786;28;20084;-21
2022/11/08 01:10:54;;;;;;;0.65;0.45;;;18.60;71.90;;;;;;5006253;28;20456;-21
2022/11/08 01:13:20;;;;;;;0.50;0.40;;;18.60;71.90;;;;;;4995320;28;20042;-21
2022/11/08 01:15:45;;;;;;;0.30;0.30;;;18.60;71.90;;;;;;4995478;28;20039;-24
2022/11/08 01:18:11;;;;;;;0.38;0.38;;;18.60;71.80;;;;;;5016731;28;20042;-23
2022/11/08 01:20:41;;;;;;;0.50;0.45;;;18.60;71.90;;;;;;5012229;28;20042;-21
2022/11/08 01:23:07;;;;;;;0.40;0.40;;;18.50;71.70;;;;;;5007537;28;20047;-21
2022/11/08 01:25:36;;;;;;;0.70;0.43;;;18.60;71.90;;;;;;5009855;28;20146;-21
2022/11/08 01:28:02;;;;;;;0.60;0.47;;;18.60;71.90;;;;;;5011295;28;20055;-21
2022/11/08 01:30:28;;;;;;;0.40;0.40;;;18.60;71.80;;;;;;5008938;28;20041;-21
2022/11/08 01:32:53;;;;;;;0.70;0.60;;;18.60;71.90;;;;;;5005032;28;20046;-21
2022/11/08 01:35:19;;;;;;;0.47;0.43;;;18.60;71.80;;;;;;5005899;28;20037;-22
2022/11/08 01:37:44;;;;;;;0.50;0.50;;;18.60;71.90;;;;;;5011542;28;20052;-21
2022/11/08 01:40:10;;;;;;;0.40;0.40;;;18.50;71.80;;;;;;5013027;28;20149;-24
2022/11/08 01:42:36;;;;;;;0.40;0.30;;;18.60;71.90;;;;;;5005631;28;20046;-21
2022/11/08 01:45:03;;;;;;;0.50;0.50;;;18.50;71.80;;;;;;5017179;28;20034;-21
2022/11/08 01:47:29;;;;;;;0.90;0.30;;;18.60;72.00;;;;;;5026578;28;20026;-21
2022/11/08 01:49:56;;;;;;;0.57;0.47;;;18.50;72.00;;;;;;5011497;28;20065;-21
2022/11/08 01:52:34;;;;;;;0.43;0.40;;;18.60;72.70;;;;;;5014226;28;20037;-20
2022/11/08 01:55:04;;;;;;;0.50;0.50;;;18.60;71.80;;;;;;5022540;28;20144;-20
2022/11/08 01:57:55;;;;;;;0.75;0.65;;;18.60;72.60;;;;;;5002125;28;20539;-21
2022/11/08 02:00:20;;;;;;;0.40;0.40;;;18.60;72.60;;;;;;5008551;28;20033;-21
2022/11/08 02:02:55;;;;;;;0.35;0.35;;;18.60;71.60;;;;;;5004369;28;20042;-24
2022/11/08 02:05:24;;;;;;;0.40;0.40;;;18.60;71.80;;;;;;5024504;28;20041;-24
2022/11/08 02:08:05;;;;;;;0.40;0.40;;;18.60;71.90;;;;;;5010667;28;20087;-21
2022/11/08 02:10:35;;;;;;;0.40;0.35;;;18.60;71.80;;;;;;5016102;28;20038;-25
2022/11/08 02:13:01;;;;;;;0.30;0.30;;;18.60;71.80;;;;;;5011449;28;20050;-22
2022/11/08 02:15:27;;;;;;;1.73;0.40;;;18.60;71.90;;;;;;5012053;28;20056;-21
2022/11/08 02:17:52;;;;;;;0.50;0.32;;;18.60;71.90;;;;;;5009751;28;20027;-21
2022/11/08 02:20:18;;;;;;;0.70;0.50;;;18.60;71.80;;;;;;5006555;28;20053;-21
2022/11/08 02:23:06;;;;;;;0.40;0.40;;;18.60;71.90;;;;;;5013279;28;20136;-21
2022/11/08 02:25:32;;;;;;;0.50;0.30;;;18.60;71.80;;;;;;4991649;28;20046;-20
2022/11/08 02:27:57;;;;;;;0.30;0.30;;;18.60;71.80;;;;;;4997341;28;20099;-30
2022/11/08 02:30:23;;;;;;;0.80;0.40;;;18.60;71.80;;;;;;4987868;28;20066;-21
2022/11/08 02:32:49;;;;;;;1.75;0.30;;;18.60;71.80;;;;;;5005051;28;20521;-21
2022/11/08 02:35:15;;;;;;;1.67;0.50;;;18.60;71.90;;;;;;5012257;28;20050;-22
2022/11/08 02:37:41;;;;;;;0.30;0.30;;;18.60;71.90;;;;;;5010636;28;20446;-21
2022/11/08 02:40:07;;;;;;;0.40;0.30;;;18.60;71.90;;;;;;5010834;28;20080;-21
2022/11/08 02:42:33;;;;;;;0.40;0.40;;;18.60;71.90;;;;;;5015710;28;20076;-28
2022/11/08 02:44:58;;;;;;;0.68;0.40;;;18.60;71.80;;;;;;5007308;28;20080;-21
2022/11/08 02:47:24;;;;;;;0.32;0.32;;;18.60;71.90;;;;;;5014682;28;20462;-21
2022/11/08 02:49:50;;;;;;;0.30;0.30;;;18.60;71.80;;;;;;5009574;28;20045;-21
2022/11/08 02:52:15;;;;;;;0.30;0.30;;;18.60;72.00;;;;;;5009269;28;20049;-21
2022/11/08 02:54:41;;;;;;;0.40;0.20;;;18.50;71.80;;;;;;5010392;28;20133;-21
2022/11/08 02:57:06;;;;;;;0.43;0.40;;;18.60;71.90;;;;;;5008453;28;20042;-21
2022/11/08 02:59:32;;;;;;;0.30;0.30;;;18.60;71.90;;;;;;4991335;28;20034;-28
2022/11/08 03:01:58;;;;;;;0.40;0.40;;;18.60;71.70;;;;;;5014192;28;20409;-21
2022/11/08 03:04:23;;;;;;;1.33;0.57;;;18.60;71.90;;;;;;5007553;28;20036;-26
2022/11/08 03:06:49;;;;;;;1.20;0.32;;;18.60;71.80;;;;;;5009130;28;22061;-21
2022/11/08 03:09:14;;;;;;;0.30;0.30;;;18.60;71.70;;;;;;4996171;28;20422;-21
2022/11/08 03:11:40;;;;;;;0.30;0.30;;;18.60;71.70;;;;;;4993158;28;20054;-23
2022/11/08 03:14:05;;;;;;;0.38;0.38;;;18.50;72.00;;;;;;4993723;28;20121;-21
2022/11/08 03:16:31;;;;;;;0.50;0.50;;;18.50;71.80;;;;;;4992268;28;20392;-21
2022/11/08 03:18:57;;;;;;;0.10;0.10;;;18.50;71.90;;;;;;5008761;28;20045;-22
2022/11/08 03:21:22;;;;;;;0.28;0.25;;;18.50;71.90;;;;;;5012807;28;20050;-21
2022/11/08 03:23:48;;;;;;;0.30;0.30;;;18.50;71.90;;;;;;5011461;28;20522;-21
2022/11/08 03:26:14;;;;;;;0.38;0.38;;;18.60;71.90;;;;;;5009025;28;20083;-21
2022/11/08 03:28:39;;;;;;;0.13;0.13;;;18.50;71.90;;;;;;5005710;28;20049;-22
2022/11/08 03:31:05;;;;;;;0.40;0.30;;;18.50;72.00;;;;;;5005497;28;20042;-21
2022/11/08 03:33:30;;;;;;;0.20;0.20;;;18.50;72.80;;;;;;4998411;28;20107;-21
2022/11/08 03:35:56;;;;;;;0.32;0.32;;;18.50;72.00;;;;;;5010642;28;20528;-21
2022/11/08 03:38:22;;;;;;;0.40;0.35;;;18.60;72.00;;;;;;5013412;28;20045;-25
2022/11/08 03:40:47;;;;;;;0.30;0.30;;;18.60;72.10;;;;;;5013057;28;20134;-21
2022/11/08 03:43:13;;;;;;;0.50;0.25;;;18.50;71.90;;;;;;5004924;28;20041;-21
2022/11/08 03:45:38;;;;;;;0.30;0.30;;;18.60;72.00;;;;;;5007475;28;20569;-21
2022/11/08 03:48:04;;;;;;;0.30;0.30;;;18.50;72.00;;;;;;5014608;28;20613;-21
2022/11/08 03:50:30;;;;;;;0.20;0.20;;;18.50;72.30;;;;;;5012728;28;20049;-21
2022/11/08 03:52:55;;;;;;;0.32;0.32;;;18.50;72.10;;;;;;5017093;28;20060;-20
2022/11/08 03:55:23;;;;;;;0.20;0.20;;;18.50;72.10;;;;;;5000773;28;20406;-21
2022/11/08 03:57:49;;;;;;;1.85;0.45;;;18.50;72.10;;;;;;5020004;28;20056;-21
2022/11/08 04:00:16;;;;;;;0.28;0.28;;;18.50;72.20;;;;;;5014505;28;20045;-22
2022/11/08 04:02:42;;;;;;;0.60;0.40;;;18.50;72.10;;;;;;5002433;28;20490;-21
2022/11/08 04:05:08;;;;;;;0.22;0.22;;;18.50;72.00;;;;;;5015204;28;20046;-21
2022/11/08 04:07:34;;;;;;;0.40;0.40;;;18.50;72.10;;;;;;5000694;28;20053;-22
2022/11/08 04:10:00;;;;;;;0.20;0.20;;;18.50;72.00;;;;;;4995691;28;20042;-22
2022/11/08 04:15:15;;;;;;;0.30;0.30;;;18.50;72.10;;;;;;4996494;28;20529;-21
2022/11/08 04:23:10;;;;;;;0.22;0.17;;;18.50;72.20;;;;;;4997462;28;20423;-21
2022/11/08 04:25:35;;;;;;;0.40;0.40;;;18.50;72.10;;;;;;4993590;28;20058;-20
2022/11/08 04:28:01;;;;;;;0.30;0.30;;;18.50;72.10;;;;;;4999578;28;20060;-21
2022/11/08 04:30:26;;;;;;;0.28;0.20;;;18.50;72.10;;;;;;5010514;28;20041;-21
2022/11/08 04:32:52;;;;;;;0.28;0.28;;;18.50;72.70;;;;;;5008652;28;20070;-21
2022/11/08 04:35:18;;;;;;;0.30;0.30;;;18.50;72.10;;;;;;5014479;28;20046;-21
2022/11/08 04:37:43;;;;;;;0.22;0.22;;;18.50;72.10;;;;;;5014123;28;20042;-21
2022/11/08 04:40:09;;;;;;;0.30;0.30;;;18.50;72.10;;;;;;5011813;28;20572;-21
2022/11/08 04:42:35;;;;;;;0.28;0.28;;;18.50;72.10;;;;;;5011800;28;20038;-21
2022/11/08 04:45:01;;;;;;;0.20;0.20;;;18.50;72.10;;;;;;4998215;28;20049;-21
2022/11/08 04:47:27;;;;;;;0.20;0.20;;;18.50;72.10;;;;;;4996994;28;20105;-20
2022/11/08 04:49:53;;;;;;;0.30;0.30;;;18.50;72.10;;;;;;4996167;28;20082;-21
2022/11/08 04:52:19;;;;;;;0.10;0.10;;;18.50;72.10;;;;;;4996098;28;20084;-21
2022/11/08 04:54:45;;;;;;;0.20;0.20;;;18.50;72.10;;;;;;5012814;28;20041;-21
2022/11/08 04:57:11;;;;;;;0.30;0.30;;;18.50;72.90;;;;;;5010868;28;20094;-21
2022/11/08 04:59:36;;;;;;;0.10;0.10;;;18.40;72.20;;;;;;5008526;28;20061;-21
2022/11/08 05:02:02;;;;;;;0.30;0.30;;;18.50;72.20;;;;;;5009576;28;20047;-21
2022/11/08 05:04:28;;;;;;;0.25;0.20;;;18.40;72.20;;;;;;5012379;28;20033;-24
2022/11/08 05:06:53;;;;;;;0.25;0.25;;;18.50;72.20;;;;;;5016022;28;20057;-21
2022/11/08 05:09:19;;;;;;;0.20;0.20;;;18.50;72.30;;;;;;5015885;28;20407;-21
2022/11/08 05:11:44;;;;;;;0.32;0.20;;;18.50;72.30;;;;;;5011457;28;20065;-21
2022/11/08 05:14:10;;;;;;;0.30;0.30;;;18.50;72.10;;;;;;5005550;28;20046;-20
2022/11/08 05:16:35;;;;;;;0.20;0.20;;;18.50;72.10;;;;;;4997563;28;20457;-21
2022/11/08 05:19:01;;;;;;;0.20;0.20;;;18.50;72.20;;;;;;4991396;28;20077;-21
2022/11/08 05:24:12;;;;;;;;;;;18.50;72.20;;;;;;5014225;28;20064;-23
2022/11/08 05:26:39;;;;;;;0.25;0.20;;;18.50;72.10;;;;;;4997202;28;20074;-20
2022/11/08 05:29:04;;;;;;;3.08;0.30;;;18.50;72.10;;;;;;4994333;28;20045;-29
2022/11/08 05:31:30;;;;;;;0.35;0.13;;;18.50;73.00;;;;;;4989174;28;20042;-21
2022/11/08 05:33:56;;;;;;;0.30;0.17;;;18.50;72.20;;;;;;4990798;28;20057;-21
2022/11/08 05:36:22;;;;;;;0.25;0.25;;;18.50;72.30;;;;;;4992044;28;20046;-21
2022/11/08 05:38:47;;;;;;;0.17;0.10;;;18.50;72.30;;;;;;4994253;28;20236;-22
2022/11/08 05:41:17;;;;;;;0.22;0.22;;;18.50;72.20;;;;;;5001695;28;20057;-21
2022/11/08 05:43:45;;;;;;;0.28;0.20;;;18.50;72.20;;;;;;5005830;28;20046;-21
2022/11/08 05:46:11;;;;;;;0.10;0.10;;;18.50;72.20;;;;;;5010023;28;20060;-21
2022/11/08 05:48:36;;;;;;;0.30;0.30;;;18.50;72.20;;;;;;5011119;28;20409;-21
2022/11/08 05:51:02;;;;;;;0.57;0.32;;;18.50;72.30;;;;;;5011180;28;20126;-21
2022/11/08 05:53:28;;;;;;;0.25;0.20;;;18.50;72.20;;;;;;5010189;28;20033;-22
2022/11/08 05:55:58;;;;;;;0.65;0.30;;;18.50;72.20;;;;;;4988055;28;20058;-22
2022/11/08 05:58:24;;;;;;;0.10;0.10;;;18.50;72.10;;;;;;4992840;28;20041;-22
2022/11/08 06:00:50;;;;;;;0.17;0.17;;;18.50;72.10;;;;;;4989613;28;20070;-21
2022/11/08 06:03:15;;;;;;;0.30;0.20;;;18.50;72.20;;;;;;4984830;28;20066;-22
2022/11/08 06:05:41;;;;;;;0.32;0.30;;;18.50;72.20;;;;;;4986754;28;20497;-23
2022/11/08 06:08:06;;;;;;;0.13;0.10;;;18.50;72.40;;;;;;4986216;28;20117;-21
2022/11/08 06:10:32;;;;;;;0.20;0.15;;;18.50;73.00;;;;;;5008114;28;20042;-22
2022/11/08 06:12:59;;;;;;;0.20;0.20;;;18.50;72.10;;;;;;4996630;28;20533;-22
2022/11/08 06:15:25;;;;;;;0.40;0.20;;;18.50;72.10;;;;;;4999010;28;20052;-22
2022/11/08 06:17:51;;;;;;;1.60;0.20;;;18.50;72.20;;;;;;5008081;28;20049;-21
2022/11/08 06:20:16;;;;;;;0.35;0.30;;;18.50;72.20;;;;;;5010918;28;20061;-21
2022/11/08 06:22:42;;;;;;;0.22;0.22;;;18.50;72.10;;;;;;5017120;28;20041;-23
2022/11/08 06:25:08;;;;;;;0.22;0.22;;;18.50;72.20;;;;;;5013336;28;20115;-27
2022/11/08 06:27:35;;;;;;;0.20;0.20;;;18.50;72.20;;;;;;5001645;28;20094;-21
2022/11/08 06:30:01;;;;;;;0.10;0.10;;;18.50;72.00;;;;;;4991954;28;20099;-23
2022/11/08 06:32:27;;;;;;;0.10;0.10;;;18.50;72.00;;;;;;4993484;28;20730;-23
2022/11/08 06:34:52;;;;;;;0.25;0.25;;;18.50;72.10;;;;;;4995421;28;20570;-21
2022/11/08 06:37:18;;;;;;;0.13;0.13;;;18.50;72.10;;;;;;5010274;28;20376;-22
2022/11/08 06:39:43;;;;;;;0.22;0.20;;;18.50;72.00;;;;;;4994200;28;20201;-21
2022/11/08 06:42:09;;;;;;;0.30;0.30;;;18.40;72.00;;;;;;4993899;28;20092;-22
2022/11/08 06:44:35;;;;;;;0.20;0.20;;;18.40;72.10;;;;;;5000250;28;20406;-22
2022/11/08 06:47:00;;;;;;;0.10;0.10;;;18.50;72.20;;;;;;5008883;28;20293;-22
2022/11/08 06:49:26;;;;;;;0.10;0.10;;;18.40;72.10;;;;;;4991902;28;20038;-22
2022/11/08 06:51:52;;;;;;;0.40;0.28;;;18.40;72.20;;;;;;5007130;28;20149;-21
2022/11/08 06:54:17;;;;;;;0.10;0.10;;;18.50;72.10;;;;;;5005237;28;20041;-21
2022/11/08 06:56:44;;;;;;;0.28;0.22;;;18.40;72.00;;;;;;4696050;28;10000994;-21
2022/11/08 06:59:10;;;;;;;0.20;0.20;;;18.40;72.00;;;;;;4979454;28;20522;-21
2022/11/08 07:01:36;;;;;;;0.40;0.15;;;18.50;71.90;;;;;;4994769;28;20396;-21
2022/11/08 07:04:02;;;;;;;0.30;0.20;;;18.40;71.90;;;;;;5001243;28;20053;-31
2022/11/08 07:06:28;;;;;;;0.28;0.20;;;18.50;71.80;;;;;;5003248;28;20495;-21
2022/11/08 07:08:54;;;;;;;0.13;0.13;;;18.50;72.00;;;;;;5008469;28;20119;-21
2022/11/08 07:11:19;;;;;;;0.17;0.15;;;18.50;71.70;;;;;;5003799;28;20188;-22
2022/11/08 07:13:46;;;;;;;0.25;0.25;;;18.60;71.70;;;;;;5005093;28;20049;-21
2022/11/08 07:16:12;;;;;;;0.20;0.20;;;18.80;71.10;;;;;;5006580;28;20037;-22
2022/11/08 07:18:37;;;;;;;1.30;0.20;;;19.00;70.50;;;;;;5005969;28;20454;-22
2022/11/08 07:21:03;;;;;;;0.25;0.20;;;18.90;70.40;;;;;;5005370;28;20034;-22
2022/11/08 07:23:28;;;;;;;0.20;0.13;;;18.80;70.90;;;;;;4990771;28;20053;-21
2022/11/08 07:25:54;;;;;;;0.63;0.28;;;18.80;70.90;;;;;;4988731;28;20144;-26
2022/11/08 07:28:20;;;;;;;0.20;0.20;;;18.90;70.90;;;;;;5008228;28;20124;-22
2022/11/08 07:30:46;;;;;;;1.10;0.20;;;19.10;69.80;;;;;;5008694;28;20117;-22
2022/11/08 07:33:12;;;;;;;0.20;0.20;;;18.90;70.40;;;;;;5013348;28;20041;-21
2022/11/08 07:35:38;;;;;;;0.70;0.20;;;18.70;70.80;;;;;;4995166;28;20038;-21
2022/11/08 07:38:04;;;;;;;0.20;0.20;;;18.70;71.00;;;;;;5007846;28;20055;-21
2022/11/08 07:40:29;;;;;;;0.30;0.20;;;18.70;71.00;;;;;;5010809;28;20490;-23
2022/11/08 07:42:58;;;;;;;0.47;0.20;;;18.70;71.10;;;;;;5010569;28;20061;-21
2022/11/08 07:45:26;;;;;;;0.85;0.20;;;18.70;71.10;;;;;;5003843;28;20046;-21
2022/11/08 07:47:58;;;;;;;0.28;0.28;;;18.60;71.20;;;;;;5010555;28;20046;-21
2022/11/08 07:50:24;;;;;;;0.82;0.30;;;18.80;70.80;;;;;;4999792;28;20143;-28
2022/11/08 07:52:49;;;;;;;0.40;0.28;;;18.70;71.00;;;;;;4992337;28;20159;-22
2022/11/08 07:55:15;;;;;;;0.43;0.20;;;18.60;71.40;;;;;;4997578;28;20109;-21
2022/11/08 07:57:40;;;;;;;0.40;0.30;;;18.60;71.40;;;;;;5007605;28;20469;-23
2022/11/08 08:00:07;;;;;;;1.17;0.30;;;18.60;71.60;;;;;;5001191;28;20521;-21
2022/11/08 08:02:32;;;;;;;0.43;0.30;;;18.60;71.50;;;;;;5004314;28;20053;-22
2022/11/08 08:04:58;;;;;;;0.40;0.30;;;18.60;71.20;;;;;;5007727;28;20052;-21
2022/11/08 08:07:23;;;;;;;0.52;0.40;;;18.60;71.50;;;;;;5010118;28;20077;-30
2022/11/08 08:09:49;;;;;;;1.20;0.45;;;18.50;71.70;;;;;;5010799;28;20061;-21
2022/11/08 08:12:15;;;;;;;0.50;0.30;;;18.50;71.70;;;;;;5015600;28;20123;-22
2022/11/08 08:14:40;;;;;;;1.13;0.35;;;18.60;71.70;;;;;;5010023;28;20037;-21
2022/11/08 08:17:06;;;;;;;0.63;0.43;;;18.60;71.60;;;;;;5006925;28;20072;-22
2022/11/08 08:19:31;;;;;;;1.85;0.40;;;18.60;71.60;;;;;;4996364;28;20045;-21
2022/11/08 08:21:57;;;;;;;1.67;0.52;;;18.60;71.80;;;;;;4993988;28;20049;-22
2022/11/08 08:24:22;;;;;;;0.85;0.50;;;18.50;72.10;;;;;;5006372;28;20045;-21
2022/11/08 08:26:48;;;;;;;0.77;0.55;;;18.50;72.10;;;;;;5016626;28;20544;-22
2022/11/08 08:29:13;;;;;;;0.77;0.50;;;18.50;72.10;;;;;;5012517;28;20037;-22
2022/11/08 08:31:39;;;;;;;1.98;0.93;;;18.50;72.20;;;;;;5006658;28;20264;-22
2022/11/08 08:34:04;;;;;;;1.08;0.63;;;18.50;72.50;;;;;;5012899;28;20572;-22
2022/11/08 08:36:30;;;;;;;1.08;0.52;;;18.50;72.50;;;;;;5013599;28;20132;-21
2022/11/08 08:38:56;;;;;;;1.42;0.80;;;18.40;72.50;;;;;;5011863;28;20054;-21
2022/11/08 08:41:21;;;;;;;1.65;0.70;;;18.50;72.70;;;;;;5013336;28;20514;-23
2022/11/08 08:43:47;;;;;;;0.82;0.57;;;18.40;72.60;;;;;;4999602;28;20057;-22
2022/11/08 08:46:12;;;;;;;0.90;0.68;;;18.40;72.60;;;;;;4998037;28;20543;-22
2022/11/08 08:48:38;;;;;;;0.70;0.60;;;18.40;72.80;;;;;;5013403;28;20101;-20
2022/11/08 08:51:04;;;;;;;0.90;0.50;;;18.40;72.80;;;;;;4996993;28;20139;-24
2022/11/08 08:53:29;;;;;;;0.80;0.60;;;18.40;72.60;;;;;;4994891;28;20034;-21
2022/11/08 08:55:55;;;;;;;1.00;0.50;;;18.40;72.80;;;;;;4995747;28;20054;-21
2022/11/08 08:58:20;;;;;;;1.17;0.50;;;18.40;72.70;;;;;;4999204;28;20034;-22
2022/11/08 09:00:46;;;;;;;1.17;0.50;;;18.40;72.60;;;;;;4993122;28;20073;-22
2022/11/08 09:03:12;;;;;;;1.85;0.55;;;18.40;72.70;;;;;;5004720;28;20034;-21
2022/11/08 09:05:40;;;;;;;1.63;0.30;;;18.40;72.70;;;;;;5008729;28;20043;-22
2022/11/08 09:08:06;;;;;;;0.88;0.75;;;18.40;72.70;;;;;;5011414;28;20051;-22
2022/11/08 09:10:31;;;;;;;1.60;0.65;;;18.40;72.80;;;;;;5006080;28;20166;-21
2022/11/08 09:12:57;;;;;;;0.90;0.55;;;18.40;72.80;;;;;;5003138;28;20034;-24
2022/11/08 09:15:22;;;;;;;1.20;0.40;;;18.40;72.80;;;;;;5005842;28;20036;-22
2022/11/08 09:17:48;;;;;;;0.38;0.30;;;18.40;72.80;;;;;;5001781;28;20384;-21
2022/11/08 09:20:14;;;;;;;0.82;0.70;;;18.40;72.80;;;;;;5009168;28;20060;-22
2022/11/08 09:22:39;;;;;;;0.68;0.50;;;18.40;72.80;;;;;;5014440;28;20050;-22
2022/11/08 09:25:05;;;;;;;0.90;0.47;;;18.40;72.80;;;;;;5004603;28;20030;-22
2022/11/08 09:27:31;;;;;;;1.48;0.52;;;18.40;72.80;;;;;;5009144;28;20138;-21
2022/11/08 09:29:57;;;;;;;1.23;0.55;;;18.40;72.80;;;;;;5008022;28;20030;-21
2022/11/08 09:32:24;;;;;;;1.40;0.80;;;18.40;72.80;;;;;;5005741;28;20048;-23
2022/11/08 09:34:50;;;;;;;1.83;0.50;;;18.40;72.60;;;;;;5014516;28;20129;-22
2022/11/08 09:37:16;;;;;;;1.30;0.60;;;18.50;72.60;;;;;;5009628;28;20073;-21
2022/11/08 09:39:41;;;;;;;0.60;0.50;;;18.50;72.60;;;;;;5001647;28;20080;-25
2022/11/08 09:42:16;;;;;;;1.50;0.68;;;18.40;72.40;;;;;;4992293;28;20061;-21
2022/11/08 09:44:47;;;;;;;1.25;0.40;;;18.50;72.40;;;;;;4998587;28;20045;-22
2022/11/08 09:47:19;;;;;;;0.68;0.50;;;18.50;72.50;;;;;;4995163;28;20038;-22
2022/11/08 09:49:55;;;;;;;0.40;0.40;;;18.50;72.40;;;;;;5007724;28;20073;-22
2022/11/08 09:52:23;;;;;;;0.60;0.50;;;18.50;72.50;;;;;;5013473;28;20064;-21
2022/11/08 09:54:48;;;;;;;0.68;0.38;;;18.40;72.40;;;;;;5003078;28;20087;-22
2022/11/08 09:57:24;;;;;;;0.57;0.30;;;18.50;72.40;;;;;;5002047;28;20043;-21
2022/11/08 09:59:53;;;;;;;0.50;0.40;;;18.50;72.30;;;;;;4993067;28;20502;-26
2022/11/08 10:02:20;;;;;;;1.02;0.50;;;18.50;72.30;;;;;;5006990;28;20049;-21
2022/11/08 10:04:54;;;;;;;0.75;0.40;;;18.50;72.30;;;;;;5013148;28;20042;-23
2022/11/08 10:07:32;;;;;;;1.75;0.30;;;18.50;72.20;;;;;;5008090;28;20038;-21
2022/11/08 10:10:24;;;;;;;0.57;0.47;;;18.50;72.20;;;;;;4996534;28;20043;-22
2022/11/08 10:13:15;;;;;;;0.82;0.50;;;18.50;72.20;;;;;;4996552;28;20117;-22
2022/11/08 10:16:01;;;;;;;0.68;0.45;;;18.50;72.20;;;;;;5012188;28;20517;-22
2022/11/08 10:18:56;;;;;;;0.38;0.30;;;18.50;72.00;;;;;;5008613;28;20049;-22
2022/11/08 10:21:40;;;;;;;0.85;0.45;;;18.50;71.90;;;;;;5009241;28;20041;-22
2022/11/08 10:24:15;;;;;;;0.52;0.40;;;18.50;72.10;;;;;;5001210;28;20461;-21
2022/11/08 10:26:44;;;;;;;0.65;0.30;;;18.50;72.00;;;;;;4999360;28;20046;-21
2022/11/08 10:29:16;;;;;;;0.73;0.68;;;18.60;72.00;;;;;;5008655;28;20038;-21
2022/11/08 10:31:41;;;;;;;0.55;0.47;;;18.60;71.90;;;;;;5001355;28;20545;-23
2022/11/08 10:34:24;;;;;;;0.60;0.47;;;18.50;71.90;;;;;;5003657;28;20132;-22
2022/11/08 10:36:53;;;;;;;0.60;0.22;;;18.60;71.90;;;;;;5008049;28;20042;-24
2022/11/08 10:39:23;;;;;;;0.65;0.30;;;18.60;71.90;;;;;;5008266;28;20707;-21
2022/11/08 10:42:08;;;;;;;0.88;0.38;;;18.60;71.80;;;;;;5008326;28;20026;-23
2022/11/08 10:44:34;;;;;;;0.75;0.30;;;18.60;71.80;;;;;;5013164;28;20398;-22
2022/11/08 10:47:03;;;;;;;0.52;0.35;;;18.60;71.80;;;;;;5024806;28;20052;-21
2022/11/08 10:49:30;;;;;;;0.30;0.30;;;18.60;71.80;;;;;;5008961;28;20053;-21
2022/11/08 10:52:00;;;;;;;0.32;0.20;;;18.60;71.70;;;;;;5011814;28;20053;-22
2022/11/08 10:54:43;;;;;;;0.73;0.50;;;18.60;71.70;;;;;;5010694;28;20041;-23
2022/11/08 10:57:41;;;;;;;0.83;0.30;;;18.60;71.80;;;;;;5002423;28;20050;-21
2022/11/08 11:00:19;;;;;;;0.80;0.45;;;18.60;71.80;;;;;;5008739;28;20280;-21
2022/11/08 11:02:49;;;;;;;0.60;0.30;;;18.60;71.80;;;;;;5008241;28;20478;-26
2022/11/08 11:05:15;;;;;;;0.35;0.30;;;18.70;71.40;;;;;;5007857;28;20041;-22
2022/11/08 11:07:42;;;;;;;0.60;0.35;;;18.70;71.40;;;;;;4994278;28;20416;-23
2022/11/08 11:10:24;;;;;;;0.35;0.30;;;18.70;71.30;;;;;;5009271;28;20076;-22
2022/11/08 11:12:51;;;;;;;0.20;0.20;;;18.80;71.10;;;;;;5007008;28;20030;-21
2022/11/08 11:15:17;;;;;;;0.68;0.40;;;18.80;70.80;;;;;;5007901;28;20032;-21
2022/11/08 11:17:46;;;;;;;0.82;0.40;;;18.80;71.10;;;;;;5007418;28;20033;-22
2022/11/08 11:20:20;;;;;;;0.30;0.20;;;18.70;71.00;;;;;;5005515;28;20041;-22
2022/11/08 11:22:46;;;;;;;0.40;0.38;;;18.70;71.30;;;;;;4991615;28;20113;-15
2022/11/08 11:25:18;;;;;;;0.77;0.38;;;18.70;71.30;;;;;;5009875;28;20145;-22
2022/11/08 11:27:44;;;;;;;0.90;0.30;;;18.80;71.20;;;;;;5010629;28;20062;-22
2022/11/08 11:30:28;;;;;;;0.30;0.30;;;18.90;70.90;;;;;;5008653;28;20129;-21
2022/11/08 11:33:17;;;;;;;0.43;0.43;;;19.20;69.70;;;;;;5008272;28;20057;-21
2022/11/08 11:35:45;;;;;;;0.60;0.50;;;19.20;69.30;;;;;;5014239;28;20515;-21
2022/11/08 11:38:27;;;;;;;0.80;0.50;;;18.90;70.20;;;;;;5005378;28;20041;-22
2022/11/08 11:40:52;;;;;;;1.02;0.35;;;18.80;70.90;;;;;;5000191;28;20037;-22
2022/11/08 11:43:32;;;;;;;0.82;0.70;;;18.80;71.10;;;;;;5016096;28;20447;-22
2022/11/08 11:46:17;;;;;;;1.20;0.40;;;18.80;71.10;;;;;;5011607;28;20160;-21
2022/11/08 11:48:46;;;;;;;;;;;18.70;71.10;;;;;;4997834;28;20104;-22
2022/11/08 11:51:11;;;;;;;0.70;0.30;;;18.80;71.30;;;;;;5004337;28;19928;-22
2022/11/08 11:53:38;;;;;;;0.57;0.32;;;18.70;71.20;;;;;;5007681;28;20049;-21
2022/11/08 11:56:25;;;;;;;1.00;0.60;;;18.80;71.30;;;;;;5008449;28;20512;-23
2022/11/08 11:59:14;;;;;;;0.88;0.25;;;18.80;71.20;;;;;;5017135;28;20042;-21
2022/11/08 12:01:59;;;;;;;0.90;0.43;;;18.70;71.10;;;;;;5007565;28;20107;-22
2022/11/08 12:04:36;;;;;;;0.40;0.20;;;18.80;71.20;;;;;;5015891;28;20026;-28
2022/11/08 12:07:10;;;;;;;0.50;0.30;;;18.80;71.10;;;;;;5012310;28;20463;-21
2022/11/08 12:09:54;;;;;;;1.20;0.52;;;18.80;71.10;;;;;;5019341;28;20041;-21
2022/11/08 12:12:47;;;;;;;0.57;0.40;;;18.70;71.20;;;;;;5013765;28;20064;-21
2022/11/08 12:15:28;;;;;;;0.70;0.40;;;18.80;71.20;;;;;;5026416;28;20034;-21
2022/11/08 12:18:12;;;;;;;0.82;0.40;;;18.80;71.30;;;;;;5011295;28;20041;-22
2022/11/08 12:21:09;;;;;;;0.57;0.30;;;18.80;71.20;;;;;;5002478;28;20023;-21
2022/11/08 12:23:59;;;;;;;0.57;0.45;;;18.70;71.20;;;;;;5007491;28;20060;-21
2022/11/08 12:26:34;;;;;;;0.45;0.38;;;18.80;71.20;;;;;;5014350;28;20687;-21
2022/11/08 12:29:24;;;;;;;0.50;0.40;;;18.80;71.10;;;;;;5004836;28;20525;-27
2022/11/08 12:32:08;;;;;;;0.73;0.30;;;18.70;71.20;;;;;;5015189;28;20045;-21
2022/11/08 12:34:51;;;;;;;0.65;0.35;;;18.80;71.30;;;;;;5006126;28;20097;-21
2022/11/08 12:37:35;;;;;;;0.57;0.30;;;18.80;71.10;;;;;;5012909;28;20072;-24
2022/11/08 12:40:16;;;;;;;0.57;0.40;;;18.70;71.10;;;;;;5006202;28;20053;-22
2022/11/08 12:42:41;;;;;;;0.68;0.40;;;18.80;71.20;;;;;;5008328;28;20048;-13
2022/11/08 12:45:13;;;;;;;0.47;0.30;;;18.70;71.10;;;;;;5013385;28;20045;-15
2022/11/08 12:47:46;;;;;;;0.77;0.50;;;18.80;71.10;;;;;;5002067;28;20112;-14
2022/11/08 12:50:23;;;;;;;0.50;0.40;;;18.80;71.20;;;;;;4993844;28;20093;-13
2022/11/08 12:53:19;;;;;;;0.50;0.30;;;18.80;70.90;;;;;;4997756;28;20042;-13
2022/11/08 12:55:46;;;;;;;0.47;0.30;;;18.80;71.00;;;;;;4992715;28;20522;-13
2022/11/08 12:58:33;;;;;;;0.73;0.40;;;18.80;71.80;;;;;;4999125;28;20042;-12
2022/11/08 13:01:05;;;;;;;0.40;0.28;;;18.80;70.80;;;;;;4995132;28;20042;-14
2022/11/08 13:03:45;;;;;;;0.40;0.40;;;18.80;70.90;;;;;;5013743;28;20045;-12
2022/11/08 13:06:25;;;;;;;1.13;0.50;;;18.80;70.90;;;;;;5008680;28;20064;-13
2022/11/08 13:08:59;;;;;;;0.43;0.22;;;18.80;70.90;;;;;;5004562;28;20030;-12
2022/11/08 13:12:09;;;;;;;0.30;0.30;;;18.80;70.90;;;;;;5006714;28;20049;-13
2022/11/08 13:14:34;;;;;;;0.60;0.55;;;18.90;70.80;;;;;;4994805;28;20100;-12
2022/11/08 13:17:19;;;;;;;0.32;0.28;;;18.80;71.60;;;;;;4992266;28;20480;-13